Ansonville, North Carolina
Current Conditions -  °F | °C
As of 5:55 PM on Saturday 25 Oct 2014 (Local Time) from KVUJ Reporting Station
Clear Clear  
Wind Chill: 70°   Ceiling: Unl
Heat Index: 70°   Visibility: 10mi
Dew Point: 35°   Wind: 0mph
Humidity: 28%   Direction: NA
Pressure: 29.97"   Gusts: NA
Location:  35.1°N, 80.11°W
Report Text: KVUJ 252155Z AUTO 00000KT 10SM CLR 21/02 A2997 RMK AO2 T02090018
Loading
Personal Weather Stations






























Interactive Weather Map
Tropical Storm Tracking
New forecast layout! Learn more

10-Day Weather Forecast

Advertisements
Track Severe Weather on mobile